Time;durP1;ratioP1;P1;durP2;ratioP2;P2;SDS_P1;SDS_P2;PMS_P1;PMS_P2;Temp;Humidity;BMP_temperature;BMP_pressure;BME280_temperature;BME280_humidity;BME280_pressure;Samples;Min_cycle;Max_cycle;Signal;HPM_P1;HPM_P2
2023/11/23 08:20:32;;;;;;;1.25;0.52;;;17.50;58.10;;;;;;6183691;23;20788;-82
2023/11/23 08:25:32;;;;;;;1.00;0.55;;;17.50;57.80;;;;;;6194919;23;20504;-82
2023/11/23 08:28:04;;;;;;;1.45;0.70;;;17.50;58.20;;;;;;6156898;23;20285;-83
2023/11/23 08:30:40;;;;;;;3.17;0.82;;;17.50;57.90;;;;;;6143682;23;20154;-82
2023/11/23 08:33:15;;;;;;;0.88;0.57;;;17.50;58.00;;;;;;6122190;23;20177;-83
2023/11/23 08:35:41;;;;;;;2.58;0.60;;;17.50;58.10;;;;;;6123550;23;20150;-83
2023/11/23 08:38:07;;;;;;;0.85;0.60;;;17.50;57.70;;;;;;6172617;23;20200;-84
2023/11/23 08:48:15;;;;;;;1.45;0.60;;;17.60;58.40;;;;;;6196244;23;20202;-84
2023/11/23 08:50:42;;;;;;;1.48;0.70;;;17.60;58.30;;;;;;6173284;23;20202;-84
2023/11/23 08:53:08;;;;;;;1.67;0.70;;;17.50;58.40;;;;;;6172614;23;20135;-85
2023/11/23 08:55:34;;;;;;;1.60;0.50;;;17.50;58.40;;;;;;6170788;23;20150;-84
2023/11/23 08:58:00;;;;;;;1.50;0.63;;;17.50;58.00;;;;;;6168247;23;20199;-83
2023/11/23 09:13:25;;;;;;;2.05;0.70;;;17.70;58.20;;;;;;6170124;23;20318;-82
2023/11/23 09:18:32;;;;;;;3.90;0.75;;;17.60;58.00;;;;;;6203285;23;20202;-84
2023/11/23 09:20:59;;;;;;;1.05;0.55;;;17.70;57.90;;;;;;6147637;23;20147;-82
2023/11/23 09:23:27;;;;;;;0.55;0.50;;;17.80;57.80;;;;;;6145270;23;20142;-84
2023/11/23 09:25:53;;;;;;;1.10;0.63;;;17.80;58.00;;;;;;6107121;23;20159;-82
2023/11/23 09:28:21;;;;;;;1.80;0.52;;;17.80;57.50;;;;;;6085940;23;20269;-84
2023/11/23 09:30:49;;;;;;;0.77;0.50;;;17.80;57.90;;;;;;6112729;23;20143;-83
2023/11/23 09:33:15;;;;;;;0.90;0.50;;;17.80;57.90;;;;;;6087115;23;20159;-84
2023/11/23 09:35:42;;;;;;;1.65;0.75;;;17.80;57.90;;;;;;6090025;23;20140;-83
2023/11/23 09:38:36;;;;;;;2.70;0.68;;;17.80;57.90;;;;;;6088281;23;20179;-83
2023/11/23 09:41:03;;;;;;;1.13;0.60;;;17.80;58.00;;;;;;5970348;23;20165;-83
2023/11/23 09:43:33;;;;;;;4.22;0.60;;;17.90;57.80;;;;;;6000196;23;20155;-83
2023/11/23 09:46:03;;;;;;;2.40;0.70;;;17.80;57.60;;;;;;5999450;23;20162;-83
2023/11/23 09:48:30;;;;;;;3.63;0.68;;;17.80;57.60;;;;;;6000241;23;20181;-83
2023/11/23 09:50:58;;;;;;;5.93;0.80;;;17.90;57.50;;;;;;6037963;23;20174;-83
2023/11/23 09:53:23;;;;;;;5.13;0.70;;;17.90;57.40;;;;;;6004946;23;20157;-83
2023/11/23 09:55:52;;;;;;;4.30;0.82;;;17.90;57.60;;;;;;6073932;23;20149;-83
2023/11/23 09:58:19;;;;;;;2.60;0.70;;;17.90;57.60;;;;;;6050774;23;20245;-83
2023/11/23 10:00:45;;;;;;;3.33;0.65;;;17.90;57.20;;;;;;6077524;23;20547;-84
2023/11/23 10:03:13;;;;;;;3.22;0.55;;;17.90;57.60;;;;;;6078976;23;20157;-84
2023/11/23 10:05:43;;;;;;;4.78;0.60;;;17.90;57.60;;;;;;6121716;23;20236;-82
2023/11/23 10:08:15;;;;;;;3.67;0.60;;;17.90;57.70;;;;;;6173212;23;20135;-85
2023/11/23 10:10:45;;;;;;;2.90;0.50;;;18.00;57.50;;;;;;6145681;23;20580;-84
2023/11/23 10:13:11;;;;;;;4.60;0.70;;;18.00;57.50;;;;;;6119527;23;20154;-83
2023/11/23 10:15:38;;;;;;;1.80;0.60;;;18.00;57.50;;;;;;6121296;23;20168;-83
2023/11/23 10:18:06;;;;;;;1.40;0.60;;;18.10;57.50;;;;;;6147197;23;20198;-83
2023/11/23 10:20:34;;;;;;;1.73;0.60;;;18.10;57.70;;;;;;6126188;23;20146;-83
2023/11/23 10:23:00;;;;;;;2.72;0.50;;;18.10;57.70;;;;;;6127111;23;20166;-83
2023/11/23 10:25:34;;;;;;;1.23;0.50;;;18.10;57.10;;;;;;6126011;23;20150;-84
2023/11/23 10:28:03;;;;;;;1.65;0.60;;;18.30;57.20;;;;;;6152319;23;20241;-83
2023/11/23 10:30:33;;;;;;;2.22;0.50;;;18.20;57.20;;;;;;6128957;23;20143;-84
2023/11/23 10:33:04;;;;;;;1.55;0.57;;;18.20;57.20;;;;;;6150923;23;20163;-83
2023/11/23 10:35:41;;;;;;;1.38;0.50;;;18.20;57.50;;;;;;6153388;23;20155;-84
2023/11/23 10:38:10;;;;;;;2.55;0.98;;;18.20;57.30;;;;;;6128668;23;20205;-83
2023/11/23 10:40:35;;;;;;;3.83;0.60;;;18.20;57.20;;;;;;6130827;23;20158;-83
2023/11/23 10:43:02;;;;;;;3.15;0.63;;;18.20;57.40;;;;;;6154285;23;20195;-84
2023/11/23 10:45:28;;;;;;;3.83;0.65;;;18.20;57.30;;;;;;6128508;23;20198;-83
2023/11/23 10:47:59;;;;;;;2.53;0.60;;;18.20;57.10;;;;;;6125952;23;20146;-85
2023/11/23 10:50:26;;;;;;;2.47;0.60;;;18.30;57.10;;;;;;6142902;23;20162;-83
2023/11/23 10:52:57;;;;;;;2.33;0.70;;;18.30;57.00;;;;;;6173268;23;20135;-84
2023/11/23 10:55:23;;;;;;;1.85;0.52;;;18.30;57.10;;;;;;6124919;23;20150;-84
2023/11/23 10:58:01;;;;;;;3.78;0.63;;;18.30;57.10;;;;;;6121274;23;20178;-84
2023/11/23 11:00:28;;;;;;;2.80;0.70;;;18.20;57.30;;;;;;6147328;23;20150;-84
2023/11/23 11:02:57;;;;;;;3.80;0.80;;;18.20;57.20;;;;;;6146783;23;20146;-83
2023/11/23 11:05:28;;;;;;;5.28;0.60;;;18.20;57.20;;;;;;6150113;23;20143;-85
2023/11/23 11:08:00;;;;;;;4.53;0.63;;;18.30;57.20;;;;;;6143409;23;20150;-85
2023/11/23 11:10:28;;;;;;;1.42;0.68;;;18.20;57.20;;;;;;6141472;23;20155;-87
2023/11/23 11:13:05;;;;;;;1.83;0.73;;;18.30;57.40;;;;;;6117689;23;20152;-84
2023/11/23 11:15:32;;;;;;;3.72;0.70;;;18.30;57.10;;;;;;6094965;23;20155;-84
2023/11/23 11:18:06;;;;;;;1.58;0.50;;;18.30;56.90;;;;;;6111999;23;20209;-84
2023/11/23 11:20:33;;;;;;;3.38;0.65;;;18.20;56.60;;;;;;6150081;23;20146;-85
2023/11/23 11:23:00;;;;;;;1.15;0.68;;;18.20;56.60;;;;;;6150541;23;20154;-85
2023/11/23 11:25:39;;;;;;;4.70;0.68;;;18.20;56.80;;;;;;6176667;23;20147;-85
2023/11/23 11:28:09;;;;;;;2.95;0.60;;;18.10;57.10;;;;;;6174737;23;20176;-84
2023/11/23 11:30:37;;;;;;;1.75;0.60;;;18.10;56.70;;;;;;6168485;23;20127;-84
2023/11/23 11:33:08;;;;;;;1.75;0.70;;;18.20;56.90;;;;;;6147347;23;20147;-83
2023/11/23 11:40:50;;;;;;;2.10;0.80;;;18.10;56.60;;;;;;6187956;23;20193;-83
2023/11/23 11:43:15;;;;;;;0.85;0.40;;;18.10;56.80;;;;;;6106666;23;20193;-84
2023/11/23 12:02:19;;;;;;;1.02;0.82;;;18.10;56.90;;;;;;6177699;23;20202;-83
2023/11/23 12:04:45;;;;;;;4.80;0.80;;;18.10;56.90;;;;;;6094433;23;20147;-85
2023/11/23 12:07:33;;;;;;;0.73;0.50;;;18.10;56.80;;;;;;6122395;23;20184;-82
2023/11/23 12:10:09;;;;;;;1.60;0.40;;;18.20;57.10;;;;;;6053984;23;20215;-83
2023/11/23 12:15:27;;;;;;;1.10;0.50;;;18.20;56.90;;;;;;6216549;22;20209;-84
2023/11/23 12:17:55;;;;;;;3.10;0.50;;;18.20;56.90;;;;;;6142384;23;20275;-82
2023/11/23 12:20:22;;;;;;;2.28;0.60;;;18.20;56.50;;;;;;6136078;23;20184;-80
2023/11/23 12:22:50;;;;;;;2.15;0.55;;;18.30;56.50;;;;;;6116908;23;20167;-83
2023/11/23 12:25:21;;;;;;;1.77;0.40;;;18.20;56.50;;;;;;6146956;23;20183;-84
2023/11/23 12:27:49;;;;;;;1.48;0.50;;;18.20;56.30;;;;;;6074050;23;20246;-85
2023/11/23 12:30:17;;;;;;;1.88;0.63;;;18.30;56.40;;;;;;6099096;23;20146;-85
2023/11/23 12:32:44;;;;;;;1.92;0.68;;;18.20;56.40;;;;;;6100294;23;20154;-85
2023/11/23 12:35:15;;;;;;;0.75;0.40;;;18.20;56.50;;;;;;6173683;23;20139;-87
2023/11/23 12:37:52;;;;;;;0.98;0.40;;;18.10;56.70;;;;;;6099658;23;20597;-85
2023/11/23 12:40:21;;;;;;;0.70;0.50;;;18.20;56.60;;;;;;6077529;23;20214;-85
2023/11/23 12:42:55;;;;;;;2.08;0.50;;;18.20;56.50;;;;;;6110291;23;20252;-85
2023/11/23 12:45:38;;;;;;;1.55;0.40;;;18.10;56.40;;;;;;6002285;23;20155;-85
2023/11/23 12:48:07;;;;;;;2.28;0.50;;;18.20;56.10;;;;;;5999201;23;20170;-83
2023/11/23 12:50:37;;;;;;;3.15;0.85;;;18.30;56.30;;;;;;6018957;23;20189;-83
2023/11/23 12:53:13;;;;;;;3.03;0.60;;;18.20;56.20;;;;;;6024451;23;20150;-82
2023/11/23 12:55:38;;;;;;;4.55;0.60;;;18.30;56.00;;;;;;6019099;23;20628;-85
2023/11/23 12:58:07;;;;;;;4.65;0.80;;;18.30;56.10;;;;;;5994454;23;20285;-83
2023/11/23 13:00:35;;;;;;;6.95;1.00;;;18.30;56.10;;;;;;6017095;23;20158;-83
2023/11/23 13:03:09;;;;;;;3.47;0.68;;;18.40;55.80;;;;;;6038143;23;20161;-82
2023/11/23 13:05:52;;;;;;;7.40;0.68;;;18.40;55.60;;;;;;6014245;23;20190;-82
2023/11/23 13:08:20;;;;;;;10.32;0.90;;;18.50;55.70;;;;;;5965759;23;20158;-82
2023/11/23 13:10:49;;;;;;;7.03;1.02;;;18.40;55.50;;;;;;6015177;23;20274;-83
2023/11/23 13:13:18;;;;;;;7.25;1.20;;;18.40;55.10;;;;;;6010409;23;20157;-85
2023/11/23 13:15:45;;;;;;;10.68;1.20;;;18.50;55.80;;;;;;6074102;23;20242;-84
2023/11/23 13:18:13;;;;;;;8.10;1.15;;;18.40;56.40;;;;;;6138077;23;20568;-84
2023/11/23 13:20:41;;;;;;;6.28;1.25;;;18.30;56.30;;;;;;6170935;23;20128;-83
2023/11/23 13:23:10;;;;;;;11.95;1.30;;;18.30;56.40;;;;;;6121934;23;20143;-83
2023/11/23 13:25:44;;;;;;;9.98;1.38;;;18.30;56.40;;;;;;6170054;23;20207;-84
2023/11/23 13:28:18;;;;;;;10.68;1.00;;;18.30;56.40;;;;;;6110425;23;20485;-83
2023/11/23 13:31:00;;;;;;;;;;;;;;;;;;;;;
2023/11/23 13:33:34;;;;;;;7.35;1.05;;;18.40;56.40;;;;;;6107154;23;20184;-81
2023/11/23 13:36:07;;;;;;;8.95;0.98;;;18.40;56.10;;;;;;6134248;23;20192;-83
2023/11/23 13:38:33;;;;;;;15.05;1.50;;;18.40;55.90;;;;;;6134157;23;20361;-83
2023/11/23 13:41:00;;;;;;;7.88;1.08;;;18.40;55.90;;;;;;6108950;23;20163;-84
2023/11/23 13:44:15;;;;;;;5.45;0.75;;;18.40;56.30;;;;;;6136123;23;20133;-86
2023/11/23 13:46:42;;;;;;;10.30;1.30;;;18.50;55.40;;;;;;6047723;23;20164;-85
2023/11/23 13:49:10;;;;;;;7.50;1.10;;;18.50;55.90;;;;;;6022824;23;20170;-83
2023/11/23 13:51:38;;;;;;;9.20;1.25;;;18.40;56.40;;;;;;6021653;23;20219;-83
2023/11/23 13:54:04;;;;;;;7.03;0.98;;;18.30;56.40;;;;;;6023974;23;20165;-85
2023/11/23 13:56:35;;;;;;;8.82;0.70;;;18.40;56.00;;;;;;5999530;23;20217;-84
2023/11/23 13:59:00;;;;;;;7.80;1.13;;;18.40;56.70;;;;;;6014539;23;20184;-81
2023/11/23 14:01:26;;;;;;;3.67;0.85;;;18.40;56.40;;;;;;5988628;23;20178;-80
2023/11/23 14:03:52;;;;;;;3.65;0.70;;;18.40;56.40;;;;;;5987314;23;20242;-81
2023/11/23 14:06:18;;;;;;;8.18;0.80;;;18.30;56.20;;;;;;6035041;23;20170;-80
2023/11/23 14:08:44;;;;;;;10.70;1.00;;;18.50;56.50;;;;;;5987666;23;20206;-81
2023/11/23 14:11:11;;;;;;;8.88;1.13;;;18.40;56.70;;;;;;6035443;23;20157;-80
2023/11/23 14:13:37;;;;;;;4.97;0.70;;;18.40;56.90;;;;;;6034933;23;20474;-81
2023/11/23 14:16:07;;;;;;;3.95;0.70;;;18.50;56.60;;;;;;6011475;23;20154;-81
2023/11/23 14:18:32;;;;;;;6.85;0.90;;;18.50;56.60;;;;;;6036495;23;20658;-82
2023/11/23 14:21:04;;;;;;;5.03;0.85;;;18.40;56.70;;;;;;6015475;23;20217;-82
2023/11/23 14:23:29;;;;;;;5.57;0.93;;;18.50;56.50;;;;;;6083334;23;20207;-83
2023/11/23 14:25:59;;;;;;;4.03;0.70;;;18.50;56.60;;;;;;6133786;23;20154;-84
2023/11/23 14:28:28;;;;;;;7.32;0.75;;;18.50;56.60;;;;;;6088562;23;20159;-85
2023/11/23 14:30:54;;;;;;;5.00;0.70;;;18.50;56.60;;;;;;6099637;23;20214;-81
2023/11/23 14:33:20;;;;;;;2.95;0.70;;;18.50;56.90;;;;;;6099681;23;20326;-82
2023/11/23 14:35:50;;;;;;;5.25;0.80;;;18.50;56.90;;;;;;6098070;23;20163;-80
2023/11/23 14:38:17;;;;;;;5.45;1.08;;;18.40;57.00;;;;;;6096528;23;20275;-81
2023/11/23 14:40:46;;;;;;;2.85;0.70;;;18.50;57.40;;;;;;6096788;23;20195;-83
2023/11/23 14:43:15;;;;;;;5.22;0.77;;;18.50;56.90;;;;;;6120720;23;20137;-81
2023/11/23 14:45:42;;;;;;;2.67;0.80;;;18.50;56.80;;;;;;6098179;23;20637;-81
2023/11/23 14:48:16;;;;;;;6.80;0.80;;;18.50;57.00;;;;;;6123200;23;20148;-83
2023/11/23 14:50:45;;;;;;;2.95;0.80;;;18.50;57.10;;;;;;6098665;23;20159;-83
2023/11/23 14:53:10;;;;;;;4.72;0.70;;;18.40;57.10;;;;;;6122981;23;20169;-81
2023/11/23 14:55:39;;;;;;;5.95;0.82;;;18.50;57.30;;;;;;6097676;23;20152;-82
2023/11/23 14:58:09;;;;;;;5.18;0.90;;;18.40;57.20;;;;;;6121690;23;20168;-81
2023/11/23 15:00:38;;;;;;;3.60;0.57;;;18.40;56.90;;;;;;6123703;23;20778;-80
2023/11/23 15:03:06;;;;;;;2.22;0.60;;;18.40;57.00;;;;;;6158933;23;20243;-79
2023/11/23 15:05:31;;;;;;;4.13;0.60;;;18.30;56.50;;;;;;6159337;23;20465;-81
2023/11/23 15:07:57;;;;;;;5.70;0.68;;;18.40;57.00;;;;;;6134491;23;20290;-81
2023/11/23 15:10:24;;;;;;;5.10;0.70;;;18.40;56.40;;;;;;6158496;23;20150;-81
2023/11/23 15:12:52;;;;;;;1.73;0.40;;;18.40;56.60;;;;;;6159073;23;20163;-81
2023/11/23 15:15:18;;;;;;;3.88;0.90;;;18.40;56.60;;;;;;6159882;23;20213;-82
2023/11/23 15:17:46;;;;;;;2.15;0.47;;;18.50;56.70;;;;;;6099204;23;20213;-81
2023/11/23 15:20:12;;;;;;;4.60;0.50;;;18.30;56.80;;;;;;6124543;23;20174;-81
2023/11/23 15:22:39;;;;;;;2.08;0.60;;;18.40;56.70;;;;;;6124909;23;20662;-80
2023/11/23 15:25:06;;;;;;;2.90;0.68;;;18.40;56.80;;;;;;6124577;23;20212;-81
2023/11/23 15:27:32;;;;;;;2.08;0.60;;;18.40;56.80;;;;;;6124914;23;20210;-81
2023/11/23 15:29:58;;;;;;;1.80;0.40;;;18.50;56.40;;;;;;6101600;23;20159;-81
2023/11/23 15:32:27;;;;;;;4.18;0.77;;;18.40;57.20;;;;;;6101420;23;20671;-81
2023/11/23 15:34:53;;;;;;;1.88;0.70;;;18.50;56.90;;;;;;6122700;23;20141;-81
2023/11/23 15:37:20;;;;;;;6.80;0.82;;;18.50;56.90;;;;;;6076070;23;20236;-81
2023/11/23 15:39:46;;;;;;;4.57;0.80;;;18.50;57.50;;;;;;6123402;23;20136;-82
2023/11/23 15:42:12;;;;;;;1.80;0.40;;;18.40;57.70;;;;;;6099923;23;20187;-82
2023/11/23 15:44:38;;;;;;;3.70;0.55;;;18.40;57.30;;;;;;6123521;23;20136;-82
2023/11/23 15:47:04;;;;;;;7.13;0.88;;;18.40;57.10;;;;;;6123857;23;20144;-82
2023/11/23 15:49:31;;;;;;;2.08;0.60;;;18.40;57.30;;;;;;6175643;23;20150;-82
2023/11/23 15:51:58;;;;;;;8.18;1.13;;;18.40;57.20;;;;;;6160105;23;20145;-82
2023/11/23 15:54:27;;;;;;;6.65;0.77;;;18.40;58.00;;;;;;6185448;23;20139;-83
2023/11/23 15:56:52;;;;;;;1.45;0.47;;;18.40;57.30;;;;;;6185660;23;20226;-82
2023/11/23 15:59:19;;;;;;;7.00;0.70;;;18.40;57.30;;;;;;6136793;23;20195;-82
2023/11/23 16:01:46;;;;;;;8.20;0.95;;;18.50;57.40;;;;;;6161750;23;20127;-82
2023/11/23 16:04:18;;;;;;;10.80;0.93;;;18.40;57.40;;;;;;6138222;23;20564;-82
2023/11/23 16:06:43;;;;;;;6.85;0.93;;;18.40;57.70;;;;;;6137719;23;20513;-83
2023/11/23 16:09:09;;;;;;;6.18;0.73;;;18.40;57.60;;;;;;6136898;23;20158;-82
2023/11/23 16:11:38;;;;;;;6.47;1.00;;;18.40;57.60;;;;;;6162243;23;20159;-83
2023/11/23 16:14:07;;;;;;;4.35;0.70;;;18.40;58.20;;;;;;6163364;23;20143;-84
2023/11/23 16:16:33;;;;;;;5.50;0.82;;;18.40;58.10;;;;;;6115540;23;20164;-81
2023/11/23 16:18:59;;;;;;;3.83;0.90;;;18.40;57.80;;;;;;6137186;23;20512;-82
2023/11/23 16:21:25;;;;;;;3.67;0.57;;;18.40;58.10;;;;;;6138219;23;20143;-81
2023/11/23 16:23:50;;;;;;;3.83;0.60;;;18.40;57.60;;;;;;6112886;23;20201;-82
2023/11/23 16:26:17;;;;;;;5.07;0.80;;;18.40;57.40;;;;;;6136632;23;20210;-85
2023/11/23 16:28:43;;;;;;;5.68;0.70;;;18.50;57.60;;;;;;6077718;23;20160;-81
2023/11/23 16:31:09;;;;;;;6.72;0.90;;;18.50;58.00;;;;;;6100374;23;20160;-82
2023/11/23 16:33:35;;;;;;;8.25;0.70;;;18.40;57.50;;;;;;6126821;23;20156;-84
2023/11/23 16:36:06;;;;;;;10.70;1.15;;;18.50;57.60;;;;;;6077940;23;20148;-83
2023/11/23 16:38:31;;;;;;;4.72;0.80;;;18.50;58.30;;;;;;6077007;23;20255;-82
2023/11/23 16:40:57;;;;;;;12.70;1.00;;;18.40;58.40;;;;;;6076570;23;20198;-82
2023/11/23 16:43:23;;;;;;;9.27;1.10;;;18.40;58.30;;;;;;6076544;23;20247;-84
2023/11/23 16:45:49;;;;;;;9.13;1.33;;;18.50;58.40;;;;;;6100286;23;20227;-81
2023/11/23 16:48:15;;;;;;;9.07;1.08;;;18.50;58.00;;;;;;6099257;23;20200;-84
2023/11/23 16:50:41;;;;;;;5.03;0.70;;;18.50;58.70;;;;;;6099438;23;20222;-84
2023/11/23 16:53:08;;;;;;;12.95;1.20;;;18.50;58.20;;;;;;6099781;23;20204;-82
2023/11/23 16:55:39;;;;;;;13.00;1.10;;;18.50;58.40;;;;;;6100092;23;20224;-85
2023/11/23 16:58:05;;;;;;;12.43;1.10;;;18.50;59.10;;;;;;6101200;23;20187;-84
2023/11/23 17:00:32;;;;;;;10.77;1.13;;;18.50;58.60;;;;;;6101487;23;20157;-85
2023/11/23 17:02:57;;;;;;;8.63;1.00;;;18.60;58.70;;;;;;6160671;23;20583;-83
2023/11/23 17:05:24;;;;;;;5.57;1.13;;;18.50;58.70;;;;;;6113453;23;20150;-83
2023/11/23 17:07:54;;;;;;;5.63;0.80;;;18.60;58.40;;;;;;6137447;23;20226;-85
2023/11/23 17:10:21;;;;;;;9.82;0.90;;;18.60;59.00;;;;;;6138150;23;20127;-82
2023/11/23 17:12:47;;;;;;;7.82;1.13;;;18.50;59.40;;;;;;6185766;23;20162;-82
2023/11/23 17:15:16;;;;;;;6.63;1.10;;;18.60;58.90;;;;;;6136480;23;20547;-80
2023/11/23 17:17:50;;;;;;;7.07;1.10;;;18.60;58.80;;;;;;6133132;23;20218;-82
2023/11/23 17:20:26;;;;;;;9.32;1.33;;;18.60;59.10;;;;;;6160952;23;20153;-83
2023/11/23 17:22:56;;;;;;;12.15;1.80;;;18.60;59.10;;;;;;6096795;23;20219;-80
2023/11/23 17:25:24;;;;;;;9.57;1.25;;;18.60;59.10;;;;;;6072676;23;20152;-80
2023/11/23 17:27:49;;;;;;;9.57;1.60;;;18.60;58.90;;;;;;6069567;23;20243;-81
2023/11/23 17:30:15;;;;;;;8.65;1.17;;;18.60;58.90;;;;;;6071440;23;20247;-81
2023/11/23 17:32:56;;;;;;;8.25;1.10;;;18.60;59.60;;;;;;6071887;23;20190;-82
2023/11/23 17:35:29;;;;;;;8.10;0.70;;;18.60;59.00;;;;;;6072574;23;20203;-80
2023/11/23 17:38:08;;;;;;;;;;;;;;;;;;;;;
2023/11/23 17:41:45;;;;;;;4.07;0.95;;;18.60;58.40;;;;;;6047740;23;20235;-83
2023/11/23 17:44:26;;;;;;;7.07;1.00;;;18.60;58.30;;;;;;5945324;24;20152;-81
2023/11/23 17:46:56;;;;;;;7.10;1.02;;;18.60;58.00;;;;;;5932712;24;20294;-82
2023/11/23 17:49:23;;;;;;;4.60;0.85;;;18.60;57.00;;;;;;5954387;24;20224;-81
2023/11/23 17:51:52;;;;;;;9.23;1.10;;;18.60;57.30;;;;;;5930368;24;20187;-82
2023/11/23 17:54:18;;;;;;;7.03;0.95;;;18.50;57.80;;;;;;5924062;24;20155;-83
2023/11/23 17:56:44;;;;;;;11.95;1.42;;;18.60;58.40;;;;;;5958839;24;20183;-81
2023/11/23 17:59:10;;;;;;;11.45;1.35;;;18.60;58.70;;;;;;5959704;24;20232;-81
2023/11/23 18:02:17;;;;;;;7.40;0.90;;;18.60;59.00;;;;;;5962847;24;20187;-83
2023/11/23 18:12:34;;;;;;;9.73;0.90;;;18.70;59.60;;;;;;5848338;24;20174;-82
2023/11/23 18:15:01;;;;;;;4.80;0.57;;;18.80;59.00;;;;;;5846999;24;20169;-83
2023/11/23 18:17:26;;;;;;;8.90;1.50;;;18.80;58.60;;;;;;5825106;24;20247;-81
2023/11/23 18:19:52;;;;;;;3.53;1.00;;;18.70;59.30;;;;;;5845623;24;20162;-81
2023/11/23 18:22:19;;;;;;;3.20;0.77;;;18.70;57.70;;;;;;5842916;24;20638;-80
2023/11/23 18:24:56;;;;;;;6.10;1.27;;;18.70;58.00;;;;;;5842854;24;20159;-81
2023/11/23 18:27:22;;;;;;;5.15;0.73;;;18.70;57.50;;;;;;5818429;24;20196;-80
2023/11/23 18:29:48;;;;;;;8.23;0.85;;;18.70;57.20;;;;;;5843521;24;20186;-80
2023/11/23 18:32:22;;;;;;;8.85;1.00;;;18.70;57.80;;;;;;5843330;24;21034;-80
2023/11/23 18:34:48;;;;;;;3.15;0.77;;;18.60;57.80;;;;;;5846082;24;20173;-82
2023/11/23 18:37:14;;;;;;;7.45;1.00;;;18.60;57.70;;;;;;5844952;24;20227;-84
2023/11/23 18:39:42;;;;;;;9.23;0.90;;;18.60;58.60;;;;;;5844517;24;20191;-80
2023/11/23 18:42:11;;;;;;;6.93;1.00;;;18.60;58.30;;;;;;5802270;24;20226;-82
2023/11/23 18:44:39;;;;;;;5.05;0.70;;;18.50;58.70;;;;;;5932310;23;20898;-81
2023/11/23 18:47:05;;;;;;;7.95;1.00;;;18.50;58.70;;;;;;6102865;23;20155;-81
2023/11/23 18:49:30;;;;;;;6.50;1.00;;;18.50;58.70;;;;;;6159188;23;20149;-81
2023/11/23 18:51:57;;;;;;;7.13;1.08;;;18.50;58.70;;;;;;6134396;23;20138;-81
2023/11/23 18:54:24;;;;;;;7.97;1.02;;;18.40;58.90;;;;;;6156791;23;20154;-82
2023/11/23 18:56:51;;;;;;;9.38;0.95;;;18.40;58.70;;;;;;6159497;23;20161;-80
2023/11/23 18:59:16;;;;;;;5.53;0.60;;;18.40;58.80;;;;;;6133763;23;20159;-80
2023/11/23 19:01:47;;;;;;;4.53;1.17;;;18.40;58.90;;;;;;6159595;23;20206;-80
2023/11/23 19:04:13;;;;;;;4.50;0.80;;;18.40;59.50;;;;;;6102423;23;20203;-80
2023/11/23 19:06:39;;;;;;;7.80;1.02;;;18.30;58.60;;;;;;6076183;23;20164;-80
2023/11/23 19:09:09;;;;;;;5.05;0.90;;;18.30;58.90;;;;;;6123730;23;20166;-79
2023/11/23 19:11:37;;;;;;;7.25;0.80;;;18.30;58.10;;;;;;6126338;23;20211;-81
2023/11/23 19:14:03;;;;;;;3.17;0.68;;;18.40;57.70;;;;;;6102489;23;20152;-83
2023/11/23 19:16:29;;;;;;;5.18;0.70;;;18.40;57.90;;;;;;6102201;23;20140;-82
2023/11/23 19:18:55;;;;;;;4.78;0.70;;;18.40;58.20;;;;;;6104318;23;20199;-82
2023/11/23 19:21:25;;;;;;;8.10;1.00;;;18.40;58.50;;;;;;6102852;23;20215;-83
2023/11/23 19:23:51;;;;;;;3.22;0.85;;;18.40;58.90;;;;;;6103147;23;20156;-81
2023/11/23 19:26:25;;;;;;;6.50;0.88;;;18.40;58.30;;;;;;6104658;23;20136;-83
2023/11/23 19:28:53;;;;;;;4.50;0.93;;;18.40;58.30;;;;;;6105467;23;20155;-82
2023/11/23 19:31:19;;;;;;;6.20;1.00;;;18.50;58.30;;;;;;6081632;23;20140;-81
2023/11/23 19:33:46;;;;;;;6.38;1.10;;;18.50;58.70;;;;;;6103934;23;20144;-83
2023/11/23 19:36:15;;;;;;;5.55;0.77;;;18.50;58.00;;;;;;6187358;23;20257;-82
2023/11/23 19:38:41;;;;;;;11.05;0.82;;;18.50;58.50;;;;;;6086144;23;20187;-84
2023/11/23 19:41:08;;;;;;;2.72;0.88;;;18.50;58.60;;;;;;6136082;23;20147;-82
2023/11/23 19:43:34;;;;;;;4.05;0.75;;;18.50;58.30;;;;;;6159938;23;20213;-81
2023/11/23 19:46:12;;;;;;;4.93;0.90;;;18.50;59.00;;;;;;6160347;23;20157;-82
2023/11/23 19:48:50;;;;;;;5.43;0.73;;;18.60;57.90;;;;;;6106947;23;20227;-82
2023/11/23 19:51:17;;;;;;;8.55;1.38;;;18.60;58.70;;;;;;6110458;23;20189;-79
2023/11/23 19:53:43;;;;;;;5.22;1.08;;;18.60;58.40;;;;;;6159713;23;20169;-80
2023/11/23 19:56:09;;;;;;;4.00;1.10;;;18.60;59.00;;;;;;6183474;23;20158;-81
2023/11/23 19:58:36;;;;;;;2.63;0.80;;;18.60;58.30;;;;;;6185343;23;20233;-80
2023/11/23 20:01:02;;;;;;;5.32;1.00;;;18.60;58.60;;;;;;6185294;23;20131;-81
2023/11/23 20:03:28;;;;;;;6.03;1.13;;;18.50;58.40;;;;;;6159157;23;20229;-81
2023/11/23 20:05:54;;;;;;;2.85;0.88;;;18.60;57.60;;;;;;6160058;23;20189;-81
2023/11/23 20:08:20;;;;;;;7.85;1.13;;;18.60;57.40;;;;;;6187065;23;20218;-82
2023/11/23 20:10:45;;;;;;;7.15;0.80;;;18.50;56.90;;;;;;6158718;23;20661;-82
2023/11/23 20:13:11;;;;;;;9.15;0.90;;;18.50;56.10;;;;;;6134723;23;20154;-80
2023/11/23 20:15:37;;;;;;;3.92;0.77;;;18.50;55.70;;;;;;6185495;23;20135;-84
2023/11/23 20:18:02;;;;;;;7.35;1.20;;;18.40;55.70;;;;;;6184639;23;20268;-81
2023/11/23 20:20:28;;;;;;;6.97;0.90;;;18.50;56.60;;;;;;6159363;23;20470;-81
2023/11/23 20:22:54;;;;;;;3.42;0.77;;;18.40;56.70;;;;;;6159352;23;20154;-80
2023/11/23 20:25:20;;;;;;;8.52;1.05;;;18.40;56.50;;;;;;6185015;23;20138;-79
2023/11/23 20:27:46;;;;;;;5.20;0.80;;;18.40;56.50;;;;;;6184540;23;20267;-79
2023/11/23 20:30:13;;;;;;;5.88;0.95;;;18.40;56.00;;;;;;6185324;23;20195;-79
2023/11/23 20:32:39;;;;;;;5.43;0.90;;;18.40;56.10;;;;;;6185942;23;20131;-81
2023/11/23 20:35:05;;;;;;;3.60;0.85;;;18.50;56.60;;;;;;6185022;23;20193;-80
2023/11/23 20:37:31;;;;;;;3.08;0.85;;;18.50;56.90;;;;;;6185558;23;20593;-80
2023/11/23 20:39:58;;;;;;;4.22;0.90;;;18.50;56.50;;;;;;6159490;23;20131;-79
2023/11/23 20:42:23;;;;;;;2.30;0.68;;;18.50;56.60;;;;;;6109625;23;20818;-81
2023/11/23 20:44:50;;;;;;;2.40;0.55;;;18.40;56.50;;;;;;6158702;23;20132;-81
2023/11/23 20:47:15;;;;;;;2.78;0.57;;;18.40;56.40;;;;;;6185976;23;20679;-83
2023/11/23 20:49:41;;;;;;;2.88;0.60;;;18.40;55.90;;;;;;6185783;23;20135;-80
2023/11/23 20:52:07;;;;;;;2.15;1.00;;;18.40;56.60;;;;;;6185601;23;20189;-81
2023/11/23 20:54:33;;;;;;;3.95;0.80;;;18.40;57.00;;;;;;6184517;23;20131;-80
2023/11/23 20:57:00;;;;;;;5.63;0.80;;;18.40;57.90;;;;;;6185431;23;20202;-80
2023/11/23 20:59:26;;;;;;;5.97;0.93;;;18.30;58.40;;;;;;6185346;23;20177;-79
2023/11/23 21:01:53;;;;;;;4.65;0.88;;;18.30;58.20;;;;;;6185445;23;20162;-80
2023/11/23 21:04:20;;;;;;;6.60;0.90;;;18.30;58.20;;;;;;6134662;23;20473;-81
2023/11/23 21:06:47;;;;;;;4.43;0.90;;;18.30;58.50;;;;;;6134394;23;20135;-82
2023/11/23 21:09:13;;;;;;;2.97;0.70;;;18.30;58.50;;;;;;6159230;23;20193;-81
2023/11/23 21:11:39;;;;;;;2.75;0.70;;;18.30;58.50;;;;;;6185419;23;20142;-81
2023/11/23 21:14:06;;;;;;;4.05;0.90;;;18.20;58.90;;;;;;6185423;23;20448;-81
2023/11/23 21:16:32;;;;;;;6.88;0.95;;;18.20;59.10;;;;;;6159269;23;20126;-82
2023/11/23 21:18:58;;;;;;;4.97;0.70;;;18.20;59.40;;;;;;6185191;23;20509;-82
2023/11/23 21:21:24;;;;;;;3.83;0.70;;;18.20;59.50;;;;;;6159264;23;20143;-81
2023/11/23 21:23:50;;;;;;;3.65;0.93;;;18.20;59.50;;;;;;6158976;23;20571;-81
2023/11/23 21:26:15;;;;;;;4.07;0.68;;;18.20;59.60;;;;;;6185067;23;20217;-80
2023/11/23 21:28:43;;;;;;;5.85;0.90;;;18.20;59.60;;;;;;6185412;23;20146;-79
2023/11/23 21:31:09;;;;;;;6.63;0.90;;;18.10;59.90;;;;;;6159332;23;20463;-80
2023/11/23 21:33:35;;;;;;;3.35;0.70;;;18.20;59.60;;;;;;6159342;23;20463;-82
2023/11/23 21:36:03;;;;;;;1.88;0.70;;;18.20;59.20;;;;;;6158961;23;20590;-80
2023/11/23 21:38:30;;;;;;;2.70;0.68;;;18.20;59.20;;;;;;6159782;23;20174;-79
2023/11/23 21:40:56;;;;;;;4.00;1.00;;;18.20;59.20;;;;;;6158593;23;20150;-80
2023/11/23 21:43:22;;;;;;;1.55;0.70;;;18.10;59.20;;;;;;6185175;23;20161;-81
2023/11/23 21:45:48;;;;;;;3.72;0.70;;;18.20;59.20;;;;;;6134562;23;20146;-81
2023/11/23 21:48:14;;;;;;;2.47;0.70;;;18.10;59.10;;;;;;6158327;23;20143;-80
2023/11/23 21:50:40;;;;;;;2.28;0.80;;;18.10;59.00;;;;;;6158831;23;20184;-82
2023/11/23 21:53:05;;;;;;;2.17;0.80;;;18.10;59.00;;;;;;6185206;23;20162;-79
2023/11/23 21:55:33;;;;;;;6.30;0.90;;;18.10;59.20;;;;;;6184126;23;20139;-81
2023/11/23 21:57:59;;;;;;;4.00;0.75;;;18.10;59.10;;;;;;6185228;23;20270;-80
2023/11/23 22:00:25;;;;;;;2.40;0.70;;;18.10;59.30;;;;;;6158472;23;20542;-82
2023/11/23 22:02:51;;;;;;;2.92;0.88;;;18.00;59.30;;;;;;6133952;23;20244;-83
2023/11/23 22:05:16;;;;;;;1.63;0.82;;;18.10;59.20;;;;;;6185058;23;20563;-79
2023/11/23 22:07:42;;;;;;;3.50;0.82;;;18.10;59.30;;;;;;6158737;23;20548;-81
2023/11/23 22:10:08;;;;;;;3.45;0.77;;;18.00;59.10;;;;;;6158083;23;20498;-80
2023/11/23 22:12:34;;;;;;;3.03;0.75;;;18.00;59.30;;;;;;6158854;23;20463;-81